Time;durP1;ratioP1;P1;durP2;ratioP2;P2;SDS_P1;SDS_P2;PMS_P1;PMS_P2;Temp;Humidity;BMP_temperature;BMP_pressure;BME280_temperature;BME280_humidity;BME280_pressure;Samples;Min_cycle;Max_cycle;Signal;HPM_P1;HPM_P2
2023/09/27 00:00:06;;;;;;;8.10;7.33;;;;;;;;;;4969383;28;20220;-82
2023/09/27 00:02:45;;;;;;;7.53;6.83;;;;;;;;;;4951376;29;20189;-83
2023/09/27 00:05:12;;;;;;;7.77;7.07;;;;;;;;;;4949193;29;20196;-83
2023/09/27 00:07:39;;;;;;;9.53;7.80;;;;;;;;;;4938506;29;20219;-83
2023/09/27 00:10:07;;;;;;;9.30;7.70;;;;;;;;;;4949237;29;20209;-82
2023/09/27 00:12:35;;;;;;;8.13;7.33;;;;;;;;;;4952679;29;20207;-82
2023/09/27 00:15:02;;;;;;;9.63;7.37;;;;;;;;;;4957700;29;20193;-82
2023/09/27 00:17:30;;;;;;;7.50;6.80;;;;;;;;;;4955713;29;20630;-82
2023/09/27 00:19:56;;;;;;;8.10;7.30;;;;;;;;;;4956256;29;20741;-82
2023/09/27 00:22:24;;;;;;;8.40;7.60;;;;;;;;;;4955639;29;20220;-82
2023/09/27 00:24:51;;;;;;;7.80;6.60;;;;;;;;;;4954560;29;20185;-82
2023/09/27 00:27:17;;;;;;;7.53;6.73;;;;;;;;;;4948879;28;20178;-82
2023/09/27 00:29:43;;;;;;;7.20;6.60;;;;;;;;;;4952794;29;20703;-82
2023/09/27 00:32:09;;;;;;;7.87;7.07;;;;;;;;;;4954205;29;20329;-82
2023/09/27 00:34:35;;;;;;;7.53;6.83;;;;;;;;;;4952716;29;20189;-82
2023/09/27 00:37:02;;;;;;;7.93;7.13;;;;;;;;;;4954016;29;20197;-82
2023/09/27 00:39:28;;;;;;;7.83;7.03;;;;;;;;;;4952379;29;20789;-82
2023/09/27 00:41:55;;;;;;;7.97;7.27;;;;;;;;;;4942080;29;20198;-82
2023/09/27 00:44:21;;;;;;;8.40;7.50;;;;;;;;;;4931552;29;20681;-82
2023/09/27 00:46:47;;;;;;;8.73;7.83;;;;;;;;;;4960544;29;20215;-82
2023/09/27 00:49:15;;;;;;;8.43;7.53;;;;;;;;;;4940269;29;20229;-82
2023/09/27 00:51:41;;;;;;;8.27;7.27;;;;;;;;;;4942922;29;20581;-82
2023/09/27 00:54:08;;;;;;;8.00;7.20;;;;;;;;;;4958398;29;20264;-82
2023/09/27 00:56:35;;;;;;;8.87;7.93;;;;;;;;;;4954471;28;20557;-82
2023/09/27 00:59:01;;;;;;;8.33;7.40;;;;;;;;;;4933778;29;20214;-82
2023/09/27 01:01:28;;;;;;;8.37;7.43;;;;;;;;;;4952761;29;20193;-81
2023/09/27 01:03:54;;;;;;;9.70;7.97;;;;;;;;;;4952507;29;20193;-82
2023/09/27 01:06:21;;;;;;;10.37;8.27;;;;;;;;;;4928971;29;20196;-82
2023/09/27 01:08:47;;;;;;;10.27;9.27;;;;;;;;;;4949371;29;20214;-82
2023/09/27 01:11:13;;;;;;;9.87;8.77;;;;;;;;;;4949369;29;20193;-82
2023/09/27 01:13:39;;;;;;;8.97;8.07;;;;;;;;;;4953425;28;20740;-82
2023/09/27 01:16:05;;;;;;;8.63;7.77;;;;;;;;;;4953747;29;20708;-82
2023/09/27 01:18:31;;;;;;;8.87;8.00;;;;;;;;;;4929238;29;20236;-82
2023/09/27 01:20:57;;;;;;;8.53;7.73;;;;;;;;;;4954071;28;20263;-82
2023/09/27 01:23:23;;;;;;;8.27;7.50;;;;;;;;;;4919514;29;20233;-82
2023/09/27 01:25:53;;;;;;;8.63;7.40;;;;;;;;;;4954061;28;20791;-82
2023/09/27 01:28:21;;;;;;;9.43;8.47;;;;;;;;;;4952326;29;20299;-81
2023/09/27 01:30:47;;;;;;;8.70;7.90;;;;;;;;;;4955249;28;20197;-82
2023/09/27 01:33:13;;;;;;;8.73;7.77;;;;;;;;;;4950524;29;20299;-84
2023/09/27 01:35:41;;;;;;;8.57;7.67;;;;;;;;;;4954838;28;20189;-84
2023/09/27 01:38:08;;;;;;;9.37;8.30;;;;;;;;;;4954640;28;20201;-84
2023/09/27 01:40:39;;;;;;;9.33;8.20;;;;;;;;;;4936713;29;20189;-84
2023/09/27 01:43:06;;;;;;;9.20;8.00;;;;;;;;;;4954543;29;20247;-82
2023/09/27 01:45:33;;;;;;;9.97;7.90;;;;;;;;;;4954744;29;20204;-82
2023/09/27 01:48:00;;;;;;;8.30;7.50;;;;;;;;;;4953397;29;20232;-82
2023/09/27 01:50:26;;;;;;;8.23;7.53;;;;;;;;;;4952786;29;20213;-82
2023/09/27 01:52:53;;;;;;;8.73;7.83;;;;;;;;;;4953147;29;20221;-82
2023/09/27 01:55:20;;;;;;;8.33;7.47;;;;;;;;;;4949890;29;20646;-82
2023/09/27 01:57:46;;;;;;;8.60;7.70;;;;;;;;;;4923875;29;20559;-81
2023/09/27 02:00:14;;;;;;;8.23;7.43;;;;;;;;;;4936997;29;20205;-83
2023/09/27 02:02:44;;;;;;;8.33;6.97;;;;;;;;;;4938023;29;20203;-83
2023/09/27 02:05:10;;;;;;;9.23;8.00;;;;;;;;;;4937267;29;20197;-83
2023/09/27 02:07:40;;;;;;;7.77;7.00;;;;;;;;;;4957757;28;20196;-83
2023/09/27 02:10:06;;;;;;;8.97;7.60;;;;;;;;;;4947644;29;20209;-83
2023/09/27 02:12:33;;;;;;;8.03;7.23;;;;;;;;;;4959903;29;20217;-83
2023/09/27 02:14:59;;;;;;;8.33;7.53;;;;;;;;;;4958600;29;20189;-83
2023/09/27 02:17:25;;;;;;;8.30;7.07;;;;;;;;;;4942426;29;20201;-82
2023/09/27 02:19:51;;;;;;;9.10;8.20;;;;;;;;;;4958837;29;20220;-83
2023/09/27 02:22:18;;;;;;;9.27;8.37;;;;;;;;;;4956705;29;20551;-83
2023/09/27 02:24:44;;;;;;;9.63;8.53;;;;;;;;;;4956369;29;20189;-82
2023/09/27 02:27:11;;;;;;;9.30;8.40;;;;;;;;;;4955166;29;20255;-83
2023/09/27 02:29:46;;;;;;;9.30;7.97;;;;;;;;;;4954815;29;20300;-83
2023/09/27 02:32:13;;;;;;;9.97;8.93;;;;;;;;;;4971272;28;20193;-83
2023/09/27 02:34:39;;;;;;;10.40;9.40;;;;;;;;;;4949571;29;20225;-83
2023/09/27 02:37:06;;;;;;;12.83;9.80;;;;;;;;;;4928997;29;20240;-83
2023/09/27 02:39:32;;;;;;;9.97;8.60;;;;;;;;;;4953148;29;20657;-82
2023/09/27 02:41:59;;;;;;;8.33;7.53;;;;;;;;;;4955728;28;20213;-83
2023/09/27 02:44:26;;;;;;;9.87;8.87;;;;;;;;;;4953264;29;20276;-82
2023/09/27 02:46:52;;;;;;;11.67;9.63;;;;;;;;;;4952087;29;20210;-83
2023/09/27 02:49:19;;;;;;;10.20;9.20;;;;;;;;;;4952780;28;20213;-83
2023/09/27 02:51:48;;;;;;;10.40;9.40;;;;;;;;;;4922148;29;20192;-83
2023/09/27 02:54:15;;;;;;;9.27;8.27;;;;;;;;;;4955687;29;20213;-83
2023/09/27 02:56:45;;;;;;;10.00;9.00;;;;;;;;;;4949265;29;20185;-83
2023/09/27 02:59:11;;;;;;;9.63;8.73;;;;;;;;;;4957974;29;20205;-83
2023/09/27 03:01:41;;;;;;;9.93;8.60;;;;;;;;;;4957885;29;20269;-83
2023/09/27 03:04:09;;;;;;;9.17;8.10;;;;;;;;;;4957875;29;20201;-83
2023/09/27 03:06:37;;;;;;;8.87;7.70;;;;;;;;;;4940724;29;20207;-83
2023/09/27 03:09:08;;;;;;;9.93;8.70;;;;;;;;;;4957612;28;20209;-83
2023/09/27 03:11:39;;;;;;;9.83;8.93;;;;;;;;;;4956052;29;20657;-83
2023/09/27 03:14:05;;;;;;;10.37;9.47;;;;;;;;;;4956873;29;20580;-83
2023/09/27 03:16:31;;;;;;;10.07;8.63;;;;;;;;;;4955801;29;20201;-83
2023/09/27 03:19:00;;;;;;;9.33;8.43;;;;;;;;;;4956031;29;20209;-83
2023/09/27 03:21:27;;;;;;;9.83;8.93;;;;;;;;;;4924050;29;20220;-83
2023/09/27 03:23:57;;;;;;;9.87;8.87;;;;;;;;;;4972079;28;20231;-83
2023/09/27 03:26:24;;;;;;;10.37;8.83;;;;;;;;;;4939908;29;20197;-83
2023/09/27 03:28:51;;;;;;;10.53;8.97;;;;;;;;;;4956552;28;20214;-83
2023/09/27 03:31:19;;;;;;;10.03;8.83;;;;;;;;;;4953277;29;20201;-83
2023/09/27 03:33:46;;;;;;;10.73;8.70;;;;;;;;;;4925370;29;20230;-83
2023/09/27 03:36:12;;;;;;;10.97;9.50;;;;;;;;;;4983139;28;20181;-83
2023/09/27 03:38:38;;;;;;;9.30;8.40;;;;;;;;;;4967803;28;20213;-82
2023/09/27 03:41:14;;;;;;;12.50;10.50;;;;;;;;;;4945374;29;20193;-82
2023/09/27 03:43:40;;;;;;;12.70;11.50;;;;;;;;;;4957652;29;20245;-82
2023/09/27 03:46:06;;;;;;;14.77;11.20;;;;;;;;;;4956940;29;20201;-82
2023/09/27 03:48:34;;;;;;;12.57;11.47;;;;;;;;;;4959029;29;20209;-83
2023/09/27 03:51:00;;;;;;;13.50;11.80;;;;;;;;;;4958549;29;20240;-82
2023/09/27 03:53:28;;;;;;;13.07;11.70;;;;;;;;;;4957499;29;20598;-83
2023/09/27 03:55:54;;;;;;;13.10;11.80;;;;;;;;;;4938806;29;20186;-82
2023/09/27 03:58:21;;;;;;;13.40;12.10;;;;;;;;;;4939688;29;20215;-82
2023/09/27 04:00:47;;;;;;;13.60;12.13;;;;;;;;;;4937671;29;20205;-83
2023/09/27 04:03:13;;;;;;;13.80;12.33;;;;;;;;;;4938145;29;20252;-83
2023/09/27 04:05:40;;;;;;;13.83;12.30;;;;;;;;;;4940633;29;20215;-83
2023/09/27 04:08:06;;;;;;;13.98;12.68;;;;;;;;;;4939749;29;20470;-82
2023/09/27 04:10:33;;;;;;;13.17;11.00;;;;;;;;;;4939038;29;20193;-83
2023/09/27 04:13:00;;;;;;;11.73;10.53;;;;;;;;;;4971331;28;20248;-83
2023/09/27 04:15:26;;;;;;;11.30;10.03;;;;;;;;;;4956593;29;20435;-82
2023/09/27 04:17:52;;;;;;;11.07;9.97;;;;;;;;;;4955023;29;20197;-82
2023/09/27 04:20:19;;;;;;;12.67;11.37;;;;;;;;;;4954446;29;20202;-82
2023/09/27 04:22:48;;;;;;;12.03;10.93;;;;;;;;;;4951403;29;20237;-82
2023/09/27 04:25:15;;;;;;;12.13;10.73;;;;;;;;;;4935854;29;20600;-82
2023/09/27 04:27:43;;;;;;;12.50;11.17;;;;;;;;;;4938523;29;20589;-83
2023/09/27 04:30:11;;;;;;;12.37;11.07;;;;;;;;;;4954863;28;20710;-83
2023/09/27 04:32:42;;;;;;;13.03;11.63;;;;;;;;;;4954277;29;20213;-82
2023/09/27 04:35:08;;;;;;;12.43;11.10;;;;;;;;;;4969767;28;20192;-83
2023/09/27 04:37:35;;;;;;;12.80;11.50;;;;;;;;;;4936504;29;20677;-82
2023/09/27 04:40:03;;;;;;;13.90;12.23;;;;;;;;;;4940080;29;20557;-83
2023/09/27 04:42:29;;;;;;;11.73;10.63;;;;;;;;;;4953887;28;20181;-83
2023/09/27 04:44:55;;;;;;;13.70;12.40;;;;;;;;;;4936426;29;20518;-83
2023/09/27 04:47:22;;;;;;;12.23;10.30;;;;;;;;;;4969709;28;20189;-83
2023/09/27 04:49:48;;;;;;;12.50;11.20;;;;;;;;;;4968414;28;20216;-83
2023/09/27 04:52:14;;;;;;;12.50;11.23;;;;;;;;;;4954281;29;20212;-83
2023/09/27 04:54:40;;;;;;;14.13;11.93;;;;;;;;;;4969117;28;20225;-83
2023/09/27 04:57:07;;;;;;;13.20;11.77;;;;;;;;;;4953151;29;20306;-83
2023/09/27 04:59:33;;;;;;;12.50;11.40;;;;;;;;;;4953332;28;20217;-83
2023/09/27 05:01:59;;;;;;;12.03;10.83;;;;;;;;;;4964690;29;20212;-83
2023/09/27 05:04:25;;;;;;;12.33;11.10;;;;;;;;;;4965674;29;20180;-83
2023/09/27 05:06:52;;;;;;;11.97;10.87;;;;;;;;;;4972083;28;20587;-82
2023/09/27 05:09:18;;;;;;;11.03;9.80;;;;;;;;;;4963563;28;20221;-82
2023/09/27 05:11:46;;;;;;;13.07;11.77;;;;;;;;;;4954061;28;20201;-83
2023/09/27 05:14:13;;;;;;;11.30;10.20;;;;;;;;;;4954348;29;20217;-82
2023/09/27 05:16:39;;;;;;;12.07;10.93;;;;;;;;;;4955159;29;20573;-82
2023/09/27 05:19:05;;;;;;;11.97;10.77;;;;;;;;;;4939309;29;20209;-82
2023/09/27 05:21:31;;;;;;;12.70;11.47;;;;;;;;;;4956191;29;20189;-82
2023/09/27 05:23:57;;;;;;;13.07;11.67;;;;;;;;;;4935202;29;20820;-82
2023/09/27 05:26:23;;;;;;;13.27;11.37;;;;;;;;;;4955549;29;20818;-82
2023/09/27 05:28:50;;;;;;;12.50;11.20;;;;;;;;;;4955323;29;20213;-83
2023/09/27 05:31:16;;;;;;;14.13;12.63;;;;;;;;;;4953669;28;20196;-83
2023/09/27 05:33:42;;;;;;;12.83;11.60;;;;;;;;;;4919308;29;20737;-83
2023/09/27 05:36:08;;;;;;;13.37;12.17;;;;;;;;;;4952053;29;20209;-83
2023/09/27 05:38:34;;;;;;;13.20;11.87;;;;;;;;;;4952493;29;20204;-83
2023/09/27 05:41:00;;;;;;;12.40;11.20;;;;;;;;;;4968490;28;20197;-78
2023/09/27 05:43:27;;;;;;;12.60;11.30;;;;;;;;;;4967486;28;20189;-77
2023/09/27 05:45:53;;;;;;;13.00;11.60;;;;;;;;;;4948742;29;20194;-75
2023/09/27 05:48:19;;;;;;;13.80;12.43;;;;;;;;;;4951990;29;20192;-82
2023/09/27 05:50:48;;;;;;;13.17;11.73;;;;;;;;;;4952167;28;20224;-82
2023/09/27 05:53:16;;;;;;;13.63;12.10;;;;;;;;;;4952444;29;20628;-81
2023/09/27 05:55:43;;;;;;;14.10;12.70;;;;;;;;;;4951837;29;20189;-78
2023/09/27 05:58:09;;;;;;;14.23;12.80;;;;;;;;;;4920255;29;20676;-79
2023/09/27 06:00:42;;;;;;;16.03;14.43;;;;;;;;;;4951347;28;20657;-78
2023/09/27 06:03:08;;;;;;;16.13;14.53;;;;;;;;;;4945824;29;20414;-80
2023/09/27 06:05:35;;;;;;;16.80;13.67;;;;;;;;;;4953105;29;20216;-84
2023/09/27 06:08:03;;;;;;;13.73;12.20;;;;;;;;;;4921554;28;20558;-85
2023/09/27 06:10:29;;;;;;;12.60;11.37;;;;;;;;;;4949191;29;20204;-85
2023/09/27 06:12:55;;;;;;;13.77;12.13;;;;;;;;;;4934759;29;20213;-85
2023/09/27 06:15:22;;;;;;;13.63;12.27;;;;;;;;;;4960047;28;20185;-85
2023/09/27 06:17:48;;;;;;;15.73;12.87;;;;;;;;;;4917538;29;20211;-84
2023/09/27 06:20:22;;;;;;;15.83;14.23;;;;;;;;;;4963905;28;21126;-85
2023/09/27 06:22:49;;;;;;;17.83;15.07;;;;;;;;;;4917845;28;20204;-84
2023/09/27 06:25:16;;;;;;;19.83;15.30;;;;;;;;;;4936514;29;20185;-85
2023/09/27 06:27:42;;;;;;;14.27;12.83;;;;;;;;;;4952553;29;20196;-84
2023/09/27 06:30:08;;;;;;;15.63;13.23;;;;;;;;;;4940414;29;20213;-85
2023/09/27 06:32:35;;;;;;;14.47;12.60;;;;;;;;;;4945138;29;20197;-85
2023/09/27 06:35:10;;;;;;;18.53;15.97;;;;;;;;;;4955247;29;20189;-84
2023/09/27 06:37:37;;;;;;;16.53;14.60;;;;;;;;;;4939689;29;20281;-84
2023/09/27 06:40:13;;;;;;;17.77;14.37;;;;;;;;;;4923633;29;20736;-84
2023/09/27 06:42:39;;;;;;;15.43;13.83;;;;;;;;;;4939954;29;20259;-84
2023/09/27 06:45:07;;;;;;;18.10;15.27;;;;;;;;;;4953641;29;20267;-85
2023/09/27 06:47:35;;;;;;;15.53;13.90;;;;;;;;;;4923562;29;20849;-85
2023/09/27 06:50:03;;;;;;;17.93;14.70;;;;;;;;;;4921370;29;20209;-86
2023/09/27 06:52:29;;;;;;;13.90;12.23;;;;;;;;;;4952889;29;20190;-85
2023/09/27 06:54:57;;;;;;;16.97;15.23;;;;;;;;;;4918077;29;20194;-85
2023/09/27 06:57:23;;;;;;;19.20;13.83;;;;;;;;;;4971918;28;20722;-86
2023/09/27 06:59:50;;;;;;;14.93;13.43;;;;;;;;;;4969433;28;20676;-85
2023/09/27 07:02:16;;;;;;;14.17;12.67;;;;;;;;;;4937109;29;20193;-86
2023/09/27 07:04:42;;;;;;;14.50;12.80;;;;;;;;;;4967585;28;20197;-86
2023/09/27 07:07:12;;;;;;;16.00;12.50;;;;;;;;;;4952258;29;20192;-84
2023/09/27 07:09:38;;;;;;;15.10;13.60;;;;;;;;;;4959357;28;20259;-86
2023/09/27 07:12:06;;;;;;;15.53;13.93;;;;;;;;;;4952512;28;20188;-85
2023/09/27 07:14:32;;;;;;;15.97;13.03;;;;;;;;;;4936472;29;20209;-84
2023/09/27 07:16:58;;;;;;;15.87;13.80;;;;;;;;;;4969750;28;20346;-84
2023/09/27 07:19:24;;;;;;;15.63;13.83;;;;;;;;;;4924720;29;20194;-85
2023/09/27 07:21:51;;;;;;;15.13;13.43;;;;;;;;;;4936696;29;20177;-85
2023/09/27 07:24:17;;;;;;;15.07;12.60;;;;;;;;;;4936197;29;20193;-85
2023/09/27 07:26:45;;;;;;;16.10;14.13;;;;;;;;;;4965489;28;20193;-86
2023/09/27 07:29:12;;;;;;;17.73;15.23;;;;;;;;;;4942574;29;20216;-85
2023/09/27 07:31:38;;;;;;;15.97;13.77;;;;;;;;;;4951552;29;20189;-85
2023/09/27 07:34:05;;;;;;;18.03;14.00;;;;;;;;;;4936100;29;20728;-85
2023/09/27 07:36:31;;;;;;;14.73;12.90;;;;;;;;;;4919351;29;20178;-85
2023/09/27 07:38:59;;;;;;;16.07;14.30;;;;;;;;;;4952129;29;20250;-86
2023/09/27 07:41:26;;;;;;;15.13;13.53;;;;;;;;;;4951978;29;20553;-85
2023/09/27 07:43:52;;;;;;;15.37;13.77;;;;;;;;;;4936767;29;20540;-85
2023/09/27 07:46:19;;;;;;;15.00;13.50;;;;;;;;;;4923432;29;20189;-86
2023/09/27 07:48:45;;;;;;;16.17;13.73;;;;;;;;;;4928821;29;20213;-85
2023/09/27 07:51:12;;;;;;;20.03;15.53;;;;;;;;;;4960966;28;20286;-85
2023/09/27 07:53:38;;;;;;;19.60;15.47;;;;;;;;;;4936700;29;20255;-86
2023/09/27 07:56:06;;;;;;;17.50;14.73;;;;;;;;;;4929246;29;20206;-86
2023/09/27 07:58:33;;;;;;;18.37;15.53;;;;;;;;;;4953583;29;20198;-85
2023/09/27 08:00:59;;;;;;;18.77;16.57;;;;;;;;;;4954616;29;20216;-85
2023/09/27 08:03:27;;;;;;;17.93;15.67;;;;;;;;;;4952115;29;20670;-84
2023/09/27 08:05:53;;;;;;;18.37;16.47;;;;;;;;;;4932961;29;20228;-85
2023/09/27 08:08:19;;;;;;;19.53;17.07;;;;;;;;;;4934963;29;20197;-86
2023/09/27 08:10:47;;;;;;;16.63;14.77;;;;;;;;;;4948413;29;21555;-86
2023/09/27 08:13:13;;;;;;;18.20;16.30;;;;;;;;;;4940202;29;20213;-85
2023/09/27 08:15:40;;;;;;;19.23;17.20;;;;;;;;;;4948150;29;20188;-85
2023/09/27 08:18:07;;;;;;;19.40;17.33;;;;;;;;;;4935017;29;20336;-85
2023/09/27 08:20:34;;;;;;;24.07;21.17;;;;;;;;;;4942141;29;20181;-85
2023/09/27 08:23:01;;;;;;;25.10;21.03;;;;;;;;;;4939971;29;20189;-86
2023/09/27 08:25:27;;;;;;;26.93;24.03;;;;;;;;;;4951408;29;20189;-85
2023/09/27 08:27:53;;;;;;;27.57;23.27;;;;;;;;;;4951230;29;20185;-85
2023/09/27 08:30:20;;;;;;;28.43;24.40;;;;;;;;;;4948471;29;20300;-86
2023/09/27 08:32:47;;;;;;;27.73;24.13;;;;;;;;;;4919756;29;20213;-85
2023/09/27 08:35:13;;;;;;;29.13;25.90;;;;;;;;;;4950776;29;20190;-86
2023/09/27 08:37:39;;;;;;;32.93;27.10;;;;;;;;;;4957155;28;20206;-86
2023/09/27 08:40:07;;;;;;;30.97;27.63;;;;;;;;;;4927909;29;20287;-86
2023/09/27 08:42:34;;;;;;;30.60;27.27;;;;;;;;;;4919418;29;20189;-86
2023/09/27 08:45:01;;;;;;;27.80;24.93;;;;;;;;;;4967313;28;20196;-85
2023/09/27 08:47:28;;;;;;;31.40;27.23;;;;;;;;;;4950455;28;20240;-85
2023/09/27 08:49:57;;;;;;;27.13;23.47;;;;;;;;;;4942820;29;20212;-86
2023/09/27 08:52:26;;;;;;;28.70;24.50;;;;;;;;;;4915909;29;20276;-86
2023/09/27 08:54:52;;;;;;;30.03;26.23;;;;;;;;;;4918118;29;20208;-86
2023/09/27 08:57:19;;;;;;;28.63;25.47;;;;;;;;;;4951869;29;20196;-86
2023/09/27 08:59:45;;;;;;;29.60;25.77;;;;;;;;;;4942389;29;20209;-85
2023/09/27 09:02:12;;;;;;;35.20;28.07;;;;;;;;;;4936195;29;20197;-85
2023/09/27 09:04:39;;;;;;;34.70;26.73;;;;;;;;;;4938467;28;20747;-85
2023/09/27 09:07:06;;;;;;;30.17;26.13;;;;;;;;;;4937803;29;20325;-85
2023/09/27 09:09:33;;;;;;;28.00;25.10;;;;;;;;;;4965849;28;20209;-86
2023/09/27 09:12:01;;;;;;;28.37;25.27;;;;;;;;;;4949338;29;20198;-82
2023/09/27 09:14:44;;;;;;;26.17;23.47;;;;;;;;;;4951755;29;20921;-84
2023/09/27 09:17:15;;;;;;;24.70;20.07;;;;;;;;;;4949407;29;20314;-85
2023/09/27 09:19:42;;;;;;;28.00;24.07;;;;;;;;;;4958094;28;20276;-85
2023/09/27 09:22:09;;;;;;;28.30;23.43;;;;;;;;;;4941019;29;20887;-85
2023/09/27 09:24:35;;;;;;;25.50;21.97;;;;;;;;;;4970226;28;20229;-86
2023/09/27 09:27:09;;;;;;;27.63;22.70;;;;;;;;;;4952626;29;20276;-86
2023/09/27 09:29:47;;;;;;;29.30;22.53;;;;;;;;;;4925477;29;20227;-84
2023/09/27 09:32:15;;;;;;;25.47;19.83;;;;;;;;;;4951653;28;20193;-85
2023/09/27 09:34:42;;;;;;;24.57;21.30;;;;;;;;;;4946316;29;20247;-85
2023/09/27 09:37:35;;;;;;;24.53;19.70;;;;;;;;;;4948304;29;20690;-84
2023/09/27 09:40:13;;;;;;;23.70;20.50;;;;;;;;;;4943372;29;20267;-85
2023/09/27 09:42:39;;;;;;;24.07;20.17;;;;;;;;;;4958773;28;20251;-85
2023/09/27 09:45:06;;;;;;;25.57;20.07;;;;;;;;;;4926633;29;20220;-85
2023/09/27 09:47:36;;;;;;;24.60;20.93;;;;;;;;;;4935313;29;20181;-85
2023/09/27 09:50:10;;;;;;;26.97;20.77;;;;;;;;;;4951065;29;20263;-86
2023/09/27 09:52:39;;;;;;;22.63;20.03;;;;;;;;;;4932442;29;20212;-86
2023/09/27 09:55:11;;;;;;;19.60;17.40;;;;;;;;;;4932031;29;20186;-83
2023/09/27 09:57:38;;;;;;;20.63;17.37;;;;;;;;;;4950094;28;20567;-85
2023/09/27 10:00:18;;;;;;;18.20;15.87;;;;;;;;;;4931541;29;20205;-85
2023/09/27 10:02:53;;;;;;;20.13;16.20;;;;;;;;;;4942387;29;20183;-86
2023/09/27 10:05:22;;;;;;;18.70;16.73;;;;;;;;;;4937933;29;20192;-86
2023/09/27 10:07:50;;;;;;;18.73;14.70;;;;;;;;;;4954693;29;20756;-86
2023/09/27 10:10:20;;;;;;;17.33;13.90;;;;;;;;;;4954134;29;20564;-85
2023/09/27 10:12:47;;;;;;;17.73;15.93;;;;;;;;;;4937970;29;20935;-85
2023/09/27 10:15:14;;;;;;;20.47;16.00;;;;;;;;;;4937992;29;20255;-82
2023/09/27 10:17:40;;;;;;;16.73;14.50;;;;;;;;;;4945204;29;20197;-82
2023/09/27 10:20:19;;;;;;;20.27;17.10;;;;;;;;;;4954220;29;20304;-81
2023/09/27 10:22:46;;;;;;;17.57;14.90;;;;;;;;;;4951005;29;20239;-81
2023/09/27 10:25:27;;;;;;;16.37;13.60;;;;;;;;;;4963332;23;20238;-75
2023/09/27 10:28:04;;;;;;;13.33;11.93;;;;;;;;;;4883781;29;20505;-74
2023/09/27 10:30:58;;;;;;;18.57;13.90;;;;;;;;;;4875808;29;20191;-77
2023/09/27 10:33:29;;;;;;;16.07;14.27;;;;;;;;;;4879413;29;20447;-80
2023/09/27 10:36:01;;;;;;;16.17;14.47;;;;;;;;;;4874655;29;20188;-80
2023/09/27 10:38:42;;;;;;;14.43;12.83;;;;;;;;;;4871672;29;20338;-79
2023/09/27 10:41:09;;;;;;;17.17;15.47;;;;;;;;;;4858785;29;20238;-79
2023/09/27 10:43:35;;;;;;;15.93;13.73;;;;;;;;;;4877743;29;20410;-74
2023/09/27 10:46:04;;;;;;;14.87;13.27;;;;;;;;;;4878317;29;20731;-73
2023/09/27 10:48:31;;;;;;;16.03;14.37;;;;;;;;;;4876737;29;21546;-73
2023/09/27 10:50:58;;;;;;;16.80;13.50;;;;;;;;;;4858652;29;20251;-73
2023/09/27 10:53:24;;;;;;;13.60;11.93;;;;;;;;;;4876017;29;20255;-75
2023/09/27 10:55:51;;;;;;;14.87;11.37;;;;;;;;;;4877463;29;20191;-74
2023/09/27 10:58:17;;;;;;;12.87;11.50;;;;;;;;;;4876594;29;20208;-73
2023/09/27 11:00:50;;;;;;;12.90;11.60;;;;;;;;;;4876982;29;20466;-73
2023/09/27 11:03:17;;;;;;;13.33;11.93;;;;;;;;;;4875758;29;20196;-74
2023/09/27 11:05:43;;;;;;;14.13;11.80;;;;;;;;;;4869767;29;20319;-73
2023/09/27 11:08:10;;;;;;;14.57;13.07;;;;;;;;;;4875387;29;20694;-73
2023/09/27 11:10:36;;;;;;;14.27;12.77;;;;;;;;;;4874572;29;20299;-73
2023/09/27 11:13:10;;;;;;;14.33;12.33;;;;;;;;;;4877498;29;20242;-73
2023/09/27 11:15:37;;;;;;;16.20;13.17;;;;;;;;;;4873829;29;20868;-73
2023/09/27 11:18:04;;;;;;;11.70;10.47;;;;;;;;;;4873492;29;20212;-74
2023/09/27 11:20:31;;;;;;;14.23;11.80;;;;;;;;;;4893053;29;20240;-74
2023/09/27 11:22:58;;;;;;;14.00;12.33;;;;;;;;;;4848121;29;20263;-74
2023/09/27 11:25:34;;;;;;;13.30;11.40;;;;;;;;;;4860752;29;20218;-73
2023/09/27 11:28:02;;;;;;;14.03;11.17;;;;;;;;;;4860916;29;20298;-75
2023/09/27 11:30:32;;;;;;;12.50;11.07;;;;;;;;;;4850905;29;20222;-74
2023/09/27 11:33:04;;;;;;;12.07;10.17;;;;;;;;;;4859883;29;20279;-73
2023/09/27 11:35:31;;;;;;;10.33;9.33;;;;;;;;;;4872171;29;20226;-75
2023/09/27 11:38:07;;;;;;;13.90;10.40;;;;;;;;;;4866681;29;20745;-78
2023/09/27 11:40:34;;;;;;;11.27;9.93;;;;;;;;;;4877917;29;20188;-77
2023/09/27 11:43:01;;;;;;;11.60;10.40;;;;;;;;;;4875715;29;20188;-75
2023/09/27 11:45:28;;;;;;;11.10;10.00;;;;;;;;;;4873319;29;20297;-78
2023/09/27 11:47:54;;;;;;;12.67;9.67;;;;;;;;;;4861795;29;20216;-75
2023/09/27 11:50:22;;;;;;;11.10;10.07;;;;;;;;;;4881682;29;20203;-75
2023/09/27 11:52:48;;;;;;;9.07;8.17;;;;;;;;;;4851722;29;20264;-75
2023/09/27 11:55:15;;;;;;;8.77;7.87;;;;;;;;;;4866582;29;20202;-75
2023/09/27 11:57:42;;;;;;;8.80;8.00;;;;;;;;;;4856712;29;20585;-76
2023/09/27 12:00:09;;;;;;;7.93;7.13;;;;;;;;;;4840794;29;20256;-75
2023/09/27 12:02:35;;;;;;;8.80;7.90;;;;;;;;;;4876018;29;20220;-74
2023/09/27 12:05:04;;;;;;;11.00;8.40;;;;;;;;;;4874398;29;20194;-77
2023/09/27 12:07:32;;;;;;;11.13;8.77;;;;;;;;;;4876221;29;20202;-74
2023/09/27 12:09:58;;;;;;;10.80;8.30;;;;;;;;;;4871294;29;20753;-75
2023/09/27 12:12:24;;;;;;;10.00;9.00;;;;;;;;;;4878119;29;20199;-74
2023/09/27 12:14:50;;;;;;;7.97;7.17;;;;;;;;;;4876685;29;20247;-74
2023/09/27 12:17:17;;;;;;;7.57;6.80;;;;;;;;;;4875573;29;20195;-75
2023/09/27 12:19:45;;;;;;;9.13;8.23;;;;;;;;;;4866012;29;20187;-74
2023/09/27 12:22:14;;;;;;;11.30;7.47;;;;;;;;;;4873477;29;20395;-76
2023/09/27 12:24:41;;;;;;;10.17;7.57;;;;;;;;;;4890117;29;20191;-75
2023/09/27 12:27:08;;;;;;;8.77;7.20;;;;;;;;;;4876254;29;20214;-77
2023/09/27 12:29:35;;;;;;;9.17;8.07;;;;;;;;;;4872382;29;20210;-77
2023/09/27 12:32:02;;;;;;;10.27;7.33;;;;;;;;;;4862765;29;20212;-75
2023/09/27 12:34:29;;;;;;;9.27;7.43;;;;;;;;;;4859884;29;20227;-75
2023/09/27 12:36:55;;;;;;;8.90;7.27;;;;;;;;;;4887601;29;20283;-75
2023/09/27 12:39:21;;;;;;;7.77;6.80;;;;;;;;;;4842197;29;20225;-75
2023/09/27 12:41:48;;;;;;;9.80;8.80;;;;;;;;;;4854757;29;20199;-75
2023/09/27 12:44:14;;;;;;;8.93;7.33;;;;;;;;;;4881264;29;20202;-81
2023/09/27 12:46:40;;;;;;;7.97;6.90;;;;;;;;;;4876151;29;20327;-77
2023/09/27 12:49:07;;;;;;;8.50;7.47;;;;;;;;;;4877335;29;20212;-75
2023/09/27 12:51:33;;;;;;;8.77;6.60;;;;;;;;;;4878206;29;20654;-76
2023/09/27 12:53:59;;;;;;;7.67;6.97;;;;;;;;;;4878677;29;20599;-76
2023/09/27 12:56:25;;;;;;;8.17;7.10;;;;;;;;;;4875024;29;20281;-76
2023/09/27 12:58:51;;;;;;;7.73;7.03;;;;;;;;;;4874049;29;20669;-79
2023/09/27 13:01:18;;;;;;;7.37;6.53;;;;;;;;;;4865639;29;20261;-77
2023/09/27 13:03:47;;;;;;;9.40;6.90;;;;;;;;;;4866786;29;20188;-77
2023/09/27 13:06:13;;;;;;;7.77;6.97;;;;;;;;;;4844564;29;20207;-76
2023/09/27 13:08:40;;;;;;;9.37;5.73;;;;;;;;;;4854011;29;20217;-76
2023/09/27 13:11:06;;;;;;;8.67;6.03;;;;;;;;;;4859536;29;20252;-76
2023/09/27 13:13:32;;;;;;;7.60;6.23;;;;;;;;;;4872948;29;20263;-76
2023/09/27 13:15:58;;;;;;;7.10;6.50;;;;;;;;;;4872160;29;20197;-76
2023/09/27 13:18:24;;;;;;;8.27;6.70;;;;;;;;;;4872827;29;20592;-77
2023/09/27 13:20:52;;;;;;;6.90;6.23;;;;;;;;;;4875221;29;20190;-77
2023/09/27 13:23:18;;;;;;;6.60;5.93;;;;;;;;;;4879388;29;20262;-78
2023/09/27 13:25:54;;;;;;;5.50;5.00;;;;;;;;;;4877167;29;20214;-76
2023/09/27 13:28:20;;;;;;;6.47;5.13;;;;;;;;;;4875137;29;20729;-77
2023/09/27 13:30:46;;;;;;;5.27;4.77;;;;;;;;;;4873953;29;20644;-76
2023/09/27 13:33:13;;;;;;;6.27;4.83;;;;;;;;;;4885549;29;20264;-77
2023/09/27 13:35:39;;;;;;;6.63;5.07;;;;;;;;;;4873453;29;20192;-77
2023/09/27 13:38:06;;;;;;;6.10;5.50;;;;;;;;;;4870968;29;20697;-78
2023/09/27 13:40:32;;;;;;;5.73;4.73;;;;;;;;;;4843262;29;20221;-76
2023/09/27 13:42:58;;;;;;;5.10;4.53;;;;;;;;;;4920706;23;20231;-77
2023/09/27 13:45:24;;;;;;;7.23;5.37;;;;;;;;;;4903952;29;20697;-77
2023/09/27 13:47:51;;;;;;;5.60;5.10;;;;;;;;;;4903277;29;20195;-77
2023/09/27 13:50:17;;;;;;;5.17;4.67;;;;;;;;;;4892234;29;20199;-77
2023/09/27 13:52:43;;;;;;;5.37;4.87;;;;;;;;;;4875698;29;20184;-76
2023/09/27 13:55:11;;;;;;;5.93;4.67;;;;;;;;;;4892612;29;20192;-76
2023/09/27 13:57:41;;;;;;;6.60;4.27;;;;;;;;;;4875665;29;20240;-76
2023/09/27 14:00:08;;;;;;;4.60;4.13;;;;;;;;;;4892843;29;20211;-76
2023/09/27 14:02:37;;;;;;;5.60;4.10;;;;;;;;;;4892479;29;20761;-76
2023/09/27 14:05:03;;;;;;;4.97;3.80;;;;;;;;;;4892554;29;20278;-76
2023/09/27 14:07:32;;;;;;;6.73;4.20;;;;;;;;;;4889795;29;20593;-76
2023/09/27 14:09:58;;;;;;;4.77;3.67;;;;;;;;;;4876492;29;20665;-76
2023/09/27 14:12:24;;;;;;;4.57;4.17;;;;;;;;;;4863345;29;20192;-76
2023/09/27 14:14:51;;;;;;;4.40;4.00;;;;;;;;;;4886373;29;20222;-76
2023/09/27 14:17:18;;;;;;;5.10;3.90;;;;;;;;;;4860117;29;20221;-76
2023/09/27 14:19:44;;;;;;;4.73;4.30;;;;;;;;;;4872342;29;20228;-76
2023/09/27 14:22:10;;;;;;;5.30;4.67;;;;;;;;;;4868148;29;20219;-76
2023/09/27 14:24:36;;;;;;;4.40;4.00;;;;;;;;;;4887894;29;20669;-76
2023/09/27 14:27:03;;;;;;;4.27;3.87;;;;;;;;;;4881193;29;20277;-76
2023/09/27 14:29:29;;;;;;;4.20;3.70;;;;;;;;;;4890838;29;20698;-76